EA1IPU-1
43.26.21N 005.46.62W
IN73CK aprs.fi
zuletzt gehoert:
2023-02-05T21:19:06Z
zuerst gehoert:
2022-06-05T12:31:42Z

APRS Siero [IN73CK], 2 Stunde(n), EA1IPU-1 [22:33:07, 0s].
EA1IPU 43.26.21N 005.46.62WIN73CK 0.376km 298°WNW21:19:06ZMMDVM MMDVM HS Hat 439.8000/439.8000 CC1(3EA1IPU-1)
EA1ABW 43.24.77N 005.47.77WIN73CJ 3.132km 217°SW21:18:45ZMMDVM MMDVM HS Hat 439.8250/439.8250 CC1(3EA1ABW-2)
LEMR 43.25.83N 005.49.60WIN73CK 4.391km 263°W21:30:03ZAerodromo de la Morgal (123.500MHz): LEAS 052030Z 10010KT 070V140 CAVOK 09/06 Q1035 NOSIG=
LEGM 43.26.15N 005.49.84WIN73CK 4.667km 271°W21:30:03ZHelipuerto de La Morgal (123.500MHz): LEAS 052030Z 10010KT 070V140 CAVOK 09/06 Q1035 NOSIG=
LEHU 43.22.63N 005.49.57WIN73CJ 7.785km 214°SW21:30:03ZHelipuerto del HUCA: LEAS 052030Z 10010KT 070V140 CAVOK 09/06 Q1035 NOSIG=
ED1ZAE 43.27.99N 005.40.54WIN73DL 8.559km 66°ENE21:20:30Z400 M. PICO SAN MARTIN (GIJON) 13.1V,7.8C(3ED1ZAE-3)
ED1ZAS 43.27.52N 005.40.17WIN73DL 8.727km 73°ENE21:17:00ZRD985 438.2250/430.6250 CC1
EA1JBU 43.21.85N 005.51.13WIN73BI 10.197km 219°SW21:32:02ZEA1JBU(3EA1JBU-1)
ED1ZAU 43.23.04N 005.52.75WIN73BJ 10.327km 236°SW21:17:01ZRD625 438.5000/430.9000 CC1
33D00 43.21.63N 005.51.13WIN73BI 10.509km 218°SW21:01:42Z33-D-00 Protección Civil REMER / Delegación del Gobierno en Asturias
EA4ACU 43.29.56N 005.38.92WIN73EL 11.870km 57°ENE21:19:56ZMMDVM MMDVM HS Hat 432.7000/432.7000 CC1(3EA4ACU-1)
EA1L 43.20.37N 005.51.13WIN73BI 12.426km 211°SSW21:30:07ZWind 033°/003kn, Böen bis 005kn, Temp 6.11c, Regen 0.0mm, letzte 24h 0.0mm, seit 0h 0.0mm, Baro 1033.5h, Hum: 87%(3EA1L-13)
EB1TK 43.32.22N 005.42.32WIN73DM 12.554km 26°NNE21:25:19ZWind 079°/018kn, Böen bis 025kn, Temp 11.11c, Regen 0.0mm, letzte 24h 0.0mm, seit 0h 0.0mm, Baro 1038.4h, Hum: 75%(3EB1TK-13)
EA1FFA 43.31.53N 005.40.64WIN73DM 12.650km 37°NE21:19:25ZMMDVM MMDVM HS Hat 438.8000/438.8000 CC1(3EA1FFA-1)
EA1FPN 43.32.38N 005.42.17WIN73DM 12.892km 26°NNE21:18:25ZMMDVM MMDVM HS Hat 439.8750/439.8750 CC1
EA1DZR 43.31.49N 005.40.00WIN73DM 13.127km 41°NE21:19:04ZMMDVM MMDVM HS Hat 432.2000/432.2000 CC2(3EA1DZR-2)
MMDVM DMO 434.3500/434.3500 CC1(2EA1DZR-4)
MMDVM DVMega 431.1000/431.1000 CC1(2EA1DZR-1)
EA1HWX 43.19.29N 005.50.96WIN73BH 14.099km 206°SSW21:19:30ZDMO - UHF 439.7250/431.0000 CC11(3EA1HWX-2)
LEEL 43.32.98N 005.41.71WIN73DN 14.156km 26°NNE21:30:04ZHelipuerto de El Musel: LEAS 052030Z 10010KT 070V140 CAVOK 09/06 Q1035 NOSIG=
ED1ZAY 43.29.47N 005.56.54WIN73AL 15.033km 294°WNW21:17:06ZRD625 438.3000/430.7000 CC1
EA1IEJ 43.32.33N 005.38.92WIN73EM 15.249km 41°NE21:19:14ZMMDVM DMO 222.3400/222.3400 CC1(3EA1IEJ-11)
MMDVM MMDVM HS Hat 438.8500/438.8500 CC6(2EA1IEJ-1)
EA1FLQ 43.22.00N 005.36.35WIN73EI 15.496km 120°ESE21:17:43ZMMDVM DVMega 430.9750/430.9750 CC1
EB1GEM 43.30.00N 005.36.07WIN73EM 15.612km 62°ENE21:30:05ZWX3in1Plus2.0 U=13.3V,T=??.?C/??.?F(3EB1GEM-3)
EA1AHA 43.32.74N 005.54.35WIN73BN 16.294km 319°NW21:17:40ZMMDVM MMDVM HS 433.5000/433.5000 CC1
EA1AUM 43.32.75N 005.54.47WIN73BN 16.415km 318°NW21:19:03ZMMDVM MMDVM HS Hat 432.1000/432.1000 CC1(3EA1AUM-1)
EA1DZL 43.33.56N 005.55.78WIN73AN 18.699km 318°NW21:20:31ZMMDVM MMDVM HS Hat 438.8000/438.8000 CC1(3EA1DZL-1)
EA1HJA 43.28.10N 005.30.45WIN73FL 21.728km 80°E21:28:08Z IN73FL WX3IN1+ 2.0 - V=14.0V,TX TEMP=43.4C
EA1HJA@URE.ES(2EA1HJA-2)
EA1IMW 43.14.36N 005.46.93WIN73CF 21.815km 182°S21:19:07ZGRUPO RADIO GALENA (GRG) 430.4500/430.4500 CC1(3EA1IMW-1)
EB1DGC 43.12.60N 005.45.59WIN73CF 25.085km 178°S21:17:32ZMMDVM MMDVM HS Hat 433.4500/433.4500 CC1
EA1JW 43.31.35N 005.28.83WIN73GM 25.495km 68°ENE21:18:57ZMMDVM MMDVM HS Hat 436.5000/436.5000 CC1(3EA1JW-3)
EA1HWA 43.12.00N 005.47.40WIN73CE 26.212km 183°S21:17:56ZMMDVM MMDVM HS Hat 433.4500/433.4500 CC1
EA1JAY 43.29.33N 005.26.78WIN73GL 27.014km 77°ENE21:15:03ZTransmission ended(3EA1JAY-7)
434.525MHz Nodo TETRA DMO(2EA1JAY-4)
EA1JAY(2EA1JAY-2)
EA1FHR 43.28.72N 005.26.41WIN73GL 27.263km 80°E21:17:28ZMMDVM MMDVM HS Hat 439.1500/439.1500 CC1
EA1AYL 43.29.44N 006.09.04WIN63WL 31.112km 282°WNW21:17:38ZMMDVM MMDVM HS Hat 433.0750/433.0750 CC1
EA1RCG 43.09.45N 005.49.78WIN73CD 31.224km 189°S21:18:58ZGRUPO RADIO GALENA (GRG) 430.4500/430.4500 CC1(3EA1RCG-3)
ED1ZAD 43.07.90N 005.38.52WIN73ED 35.372km 163°SSE21:27:05ZED1ZAD-3 APRS Digi/Igate(3ED1ZAD-3)
EA1JBE 43.30.90N 005.16.15WIN73IM 41.589km 78°ENE21:30:03ZED1ZAD-3 APRS Digi/Igate(3EA1JBE-13)
MAIN QTH http://qrz.com/db/ea1jbe(2EA1JBE-1)
EC1KV 43.34.01N 006.16.01WIN63UN 42.429km 290°WNW21:24:43ZALBUERNE(3EC1KV-1)

aprs.pl 5.0.011w DL3EL © 2006-2021 [10412407]